Time;durP1;ratioP1;P1;durP2;ratioP2;P2;SDS_P1;SDS_P2;PMS_P1;PMS_P2;Temp;Humidity;BMP_temperature;BMP_pressure;BME280_temperature;BME280_humidity;BME280_pressure;Samples;Min_cycle;Max_cycle;Signal;HPM_P1;HPM_P2
2022/09/05 00:01:47;;;;;;;9.40;3.75;;;;;;;;;;4977950;28;20081;-88
2022/09/05 00:04:17;;;;;;;5.10;3.95;;;;;;;;;;4979886;28;20034;-88
2022/09/05 00:06:47;;;;;;;5.75;3.95;;;;;;;;;;4978715;28;20121;-88
2022/09/05 00:09:18;;;;;;;7.47;3.65;;;;;;;;;;4969021;28;20490;-88
2022/09/05 00:11:48;;;;;;;5.45;3.40;;;;;;;;;;4973785;28;20105;-88
2022/09/05 00:14:26;;;;;;;8.02;3.88;;;;;;;;;;4979694;28;20117;-88
2022/09/05 00:16:55;;;;;;;6.45;3.90;;;;;;;;;;4968025;28;20082;-87
2022/09/05 00:19:24;;;;;;;7.65;3.80;;;;;;;;;;4966631;28;20592;-87
2022/09/05 00:21:59;;;;;;;12.73;4.25;;;;;;;;;;4980855;28;20462;-88
2022/09/05 00:24:33;;;;;;;9.55;4.35;;;;;;;;;;4964450;28;20125;-88
2022/09/05 00:27:04;;;;;;;8.63;4.20;;;;;;;;;;4972979;28;20031;-88
2022/09/05 00:29:51;;;;;;;8.43;4.57;;;;;;;;;;4976666;28;20122;-88
2022/09/05 00:32:36;;;;;;;8.35;4.78;;;;;;;;;;4965043;28;20537;-87
2022/09/05 00:35:13;;;;;;;12.27;4.72;;;;;;;;;;4961883;28;20487;-88
2022/09/05 00:37:41;;;;;;;9.93;4.85;;;;;;;;;;4963722;28;20062;-87
2022/09/05 00:40:14;;;;;;;12.60;5.57;;;;;;;;;;4976316;28;20029;-88
2022/09/05 00:42:41;;;;;;;6.43;4.35;;;;;;;;;;4965693;28;20439;-88
2022/09/05 00:45:09;;;;;;;10.63;4.90;;;;;;;;;;4952693;28;20405;-88
2022/09/05 00:47:41;;;;;;;9.85;4.72;;;;;;;;;;4963634;28;20041;-88
2022/09/05 00:50:21;;;;;;;11.20;5.15;;;;;;;;;;4965082;28;20034;-87
2022/09/05 00:52:47;;;;;;;8.13;5.38;;;;;;;;;;4963997;28;20042;-88
2022/09/05 00:55:31;;;;;;;11.40;5.07;;;;;;;;;;4961903;28;20088;-88
2022/09/05 00:58:16;;;;;;;7.68;4.50;;;;;;;;;;4963403;28;20071;-88
2022/09/05 01:00:55;;;;;;;8.65;5.05;;;;;;;;;;4961044;28;20048;-88
2022/09/05 01:03:40;;;;;;;8.70;4.82;;;;;;;;;;4953955;28;20034;-88
2022/09/05 01:06:06;;;;;;;11.30;5.13;;;;;;;;;;4964751;28;20038;-88
2022/09/05 01:08:48;;;;;;;12.27;5.03;;;;;;;;;;4978940;28;20057;-88
2022/09/05 01:11:37;;;;;;;9.45;4.88;;;;;;;;;;4981090;28;20030;-88
2022/09/05 01:14:22;;;;;;;7.72;4.70;;;;;;;;;;4930128;28;20022;-88
2022/09/05 01:17:04;;;;;;;7.28;5.05;;;;;;;;;;4978432;28;20123;-87
2022/09/05 01:19:30;;;;;;;13.18;4.80;;;;;;;;;;4974043;28;20625;-88
2022/09/05 01:22:15;;;;;;;6.57;4.88;;;;;;;;;;4964497;28;20497;-88
2022/09/05 01:24:41;;;;;;;10.45;4.32;;;;;;;;;;4957404;28;20033;-88
2022/09/05 01:27:26;;;;;;;7.28;5.15;;;;;;;;;;4961888;28;20676;-88
2022/09/05 01:29:56;;;;;;;12.73;5.07;;;;;;;;;;4963378;28;20700;-88
2022/09/05 01:32:28;;;;;;;9.65;5.22;;;;;;;;;;4960030;28;20101;-86
2022/09/05 01:35:03;;;;;;;10.30;5.05;;;;;;;;;;4961523;28;20108;-87
2022/09/05 01:38:08;;;;;;;10.52;4.68;;;;;;;;;;4964787;28;20030;-87
2022/09/05 01:40:53;;;;;;;12.48;4.70;;;;;;;;;;4888053;29;20028;-88
2022/09/05 01:43:26;;;;;;;10.23;5.03;;;;;;;;;;4887331;29;20172;-88
2022/09/05 01:46:19;;;;;;;8.18;4.55;;;;;;;;;;4935494;28;20429;-88
2022/09/05 01:48:52;;;;;;;6.82;4.35;;;;;;;;;;4949138;28;20039;-88
2022/09/05 01:51:18;;;;;;;9.20;4.95;;;;;;;;;;4959878;28;20653;-88
2022/09/05 01:53:55;;;;;;;8.50;5.07;;;;;;;;;;4962580;28;22808;-88
2022/09/05 01:56:30;;;;;;;5.38;4.43;;;;;;;;;;4960633;28;20960;-88
2022/09/05 01:59:14;;;;;;;11.82;4.82;;;;;;;;;;4969599;28;20030;-88
2022/09/05 02:01:51;;;;;;;11.70;5.68;;;;;;;;;;4963516;28;20071;-84
2022/09/05 02:04:29;;;;;;;11.18;5.40;;;;;;;;;;4980070;28;20042;-88
2022/09/05 02:07:14;;;;;;;6.00;4.65;;;;;;;;;;4969565;28;20037;-89
2022/09/05 02:09:46;;;;;;;6.45;4.90;;;;;;;;;;4966153;28;20034;-88
2022/09/05 02:12:15;;;;;;;7.45;5.25;;;;;;;;;;4985133;28;21064;-88
2022/09/05 02:14:56;;;;;;;6.70;4.75;;;;;;;;;;4966234;28;20532;-88
2022/09/05 02:17:30;;;;;;;7.32;4.60;;;;;;;;;;4963896;28;20489;-87
2022/09/05 02:20:00;;;;;;;6.28;4.30;;;;;;;;;;4964169;28;20390;-88
2022/09/05 02:22:28;;;;;;;7.78;5.10;;;;;;;;;;4962625;28;20027;-88
2022/09/05 02:25:02;;;;;;;6.97;4.70;;;;;;;;;;4964879;28;20057;-88
2022/09/05 02:27:45;;;;;;;10.30;5.07;;;;;;;;;;4957207;28;20026;-87
2022/09/05 02:30:22;;;;;;;10.73;5.20;;;;;;;;;;4982525;28;20041;-88
2022/09/05 02:33:10;;;;;;;9.52;4.95;;;;;;;;;;4981327;28;20058;-88
2022/09/05 02:35:52;;;;;;;6.22;4.85;;;;;;;;;;4980739;28;20035;-88
2022/09/05 02:38:17;;;;;;;9.48;5.65;;;;;;;;;;4965281;28;20094;-88
2022/09/05 02:41:04;;;;;;;6.05;4.88;;;;;;;;;;4966546;28;21530;-88
2022/09/05 02:43:34;;;;;;;9.25;4.75;;;;;;;;;;4965140;28;20034;-87
2022/09/05 02:46:00;;;;;;;8.07;4.88;;;;;;;;;;4977312;28;20042;-87
2022/09/05 02:48:29;;;;;;;9.52;4.60;;;;;;;;;;4980243;28;20064;-87
2022/09/05 02:50:55;;;;;;;6.63;5.15;;;;;;;;;;4965060;28;20037;-87
2022/09/05 02:53:22;;;;;;;10.43;5.53;;;;;;;;;;4962578;28;20082;-87
2022/09/05 02:55:57;;;;;;;11.73;5.45;;;;;;;;;;4962642;28;20046;-88
2022/09/05 02:58:42;;;;;;;6.68;4.93;;;;;;;;;;4964455;28;20881;-88
2022/09/05 03:01:14;;;;;;;7.80;5.03;;;;;;;;;;4966092;28;20470;-87
2022/09/05 03:03:48;;;;;;;9.52;5.97;;;;;;;;;;4981963;28;20042;-88
2022/09/05 03:06:43;;;;;;;10.82;4.72;;;;;;;;;;4966481;28;20035;-88
2022/09/05 03:09:16;;;;;;;12.30;5.28;;;;;;;;;;4947074;28;21415;-88
2022/09/05 03:12:06;;;;;;;6.97;5.15;;;;;;;;;;4963955;28;20073;-88
2022/09/05 03:14:35;;;;;;;11.00;5.18;;;;;;;;;;4964475;28;20034;-88
2022/09/05 03:17:16;;;;;;;10.85;5.57;;;;;;;;;;4981816;28;20038;-88
2022/09/05 03:20:08;;;;;;;7.75;5.55;;;;;;;;;;4958780;28;20022;-88
2022/09/05 03:22:34;;;;;;;8.43;5.80;;;;;;;;;;4963589;28;21950;-88
2022/09/05 03:25:07;;;;;;;11.15;5.70;;;;;;;;;;4965758;28;20026;-88
2022/09/05 03:27:46;;;;;;;10.77;6.30;;;;;;;;;;4962030;28;20039;-89
2022/09/05 03:30:15;;;;;;;10.27;6.10;;;;;;;;;;4963725;28;20442;-87
2022/09/05 03:32:47;;;;;;;10.90;5.82;;;;;;;;;;4962555;28;20050;-87
2022/09/05 03:35:32;;;;;;;12.88;5.63;;;;;;;;;;4968747;28;20073;-87
2022/09/05 03:38:21;;;;;;;8.60;5.03;;;;;;;;;;4976961;28;20038;-88
2022/09/05 03:40:50;;;;;;;16.40;5.18;;;;;;;;;;4967526;28;20067;-87
2022/09/05 03:43:35;;;;;;;11.32;6.00;;;;;;;;;;4979028;28;20421;-88
2022/09/05 03:46:04;;;;;;;8.38;5.63;;;;;;;;;;4965749;28;20581;-87
2022/09/05 03:48:39;;;;;;;9.80;5.90;;;;;;;;;;4963493;28;20497;-88
2022/09/05 03:51:05;;;;;;;8.23;5.50;;;;;;;;;;4978087;28;21021;-88
2022/09/05 03:53:50;;;;;;;9.10;5.78;;;;;;;;;;4969175;28;20121;-88
2022/09/05 03:56:29;;;;;;;13.40;5.90;;;;;;;;;;4965199;28;20102;-88
2022/09/05 03:59:04;;;;;;;9.98;5.50;;;;;;;;;;4963955;28;20117;-89
2022/09/05 04:01:34;;;;;;;10.20;5.87;;;;;;;;;;4978241;28;20472;-88
2022/09/05 04:04:12;;;;;;;7.57;5.57;;;;;;;;;;4956110;28;20114;-88
2022/09/05 04:06:45;;;;;;;7.45;5.63;;;;;;;;;;4977774;28;20034;-88
2022/09/05 04:09:11;;;;;;;7.55;5.53;;;;;;;;;;4967972;28;20030;-88
2022/09/05 04:11:43;;;;;;;9.18;5.55;;;;;;;;;;4965230;28;20399;-88
2022/09/05 04:14:12;;;;;;;8.93;5.88;;;;;;;;;;4960250;28;20497;-88
2022/09/05 04:16:45;;;;;;;9.65;6.00;;;;;;;;;;4980883;28;20382;-88
2022/09/05 04:19:19;;;;;;;14.77;5.75;;;;;;;;;;4961569;28;20622;-88
2022/09/05 04:21:53;;;;;;;7.50;6.03;;;;;;;;;;4962191;28;20462;-88
2022/09/05 04:24:29;;;;;;;11.75;5.43;;;;;;;;;;4965722;28;20042;-88
2022/09/05 04:27:24;;;;;;;7.78;5.53;;;;;;;;;;4982363;28;20062;-88
2022/09/05 04:30:23;;;;;;;9.70;5.78;;;;;;;;;;4926032;28;20054;-88
2022/09/05 04:33:04;;;;;;;9.70;5.32;;;;;;;;;;4921760;28;20137;-88
2022/09/05 04:35:49;;;;;;;12.07;6.43;;;;;;;;;;4963819;28;20498;-88
2022/09/05 04:38:35;;;;;;;11.15;5.80;;;;;;;;;;4964854;28;20681;-88
2022/09/05 04:41:16;;;;;;;11.77;6.25;;;;;;;;;;4960322;28;20164;-88
2022/09/05 04:43:44;;;;;;;7.38;5.55;;;;;;;;;;4960919;28;20748;-87
2022/09/05 04:46:18;;;;;;;8.73;5.78;;;;;;;;;;4960512;28;20030;-88
2022/09/05 04:48:52;;;;;;;8.05;6.00;;;;;;;;;;4976082;28;20037;-88
2022/09/05 04:51:31;;;;;;;7.45;5.43;;;;;;;;;;4982137;28;20038;-87
2022/09/05 04:54:10;;;;;;;11.40;6.60;;;;;;;;;;4973628;28;20038;-88
2022/09/05 04:56:42;;;;;;;7.85;6.20;;;;;;;;;;4959795;28;20033;-88
2022/09/05 04:59:15;;;;;;;7.75;6.03;;;;;;;;;;4979039;28;20445;-87
2022/09/05 05:01:48;;;;;;;13.38;6.28;;;;;;;;;;4965530;28;20026;-88
2022/09/05 05:04:17;;;;;;;11.75;6.03;;;;;;;;;;4974460;28;20026;-87
2022/09/05 05:06:50;;;;;;;8.93;6.57;;;;;;;;;;4960980;28;20034;-88
2022/09/05 05:09:20;;;;;;;9.48;6.65;;;;;;;;;;4965530;28;20112;-88
2022/09/05 05:11:57;;;;;;;15.02;5.93;;;;;;;;;;4959525;28;20030;-87
2022/09/05 05:14:29;;;;;;;11.45;6.55;;;;;;;;;;4960888;28;20525;-88
2022/09/05 05:16:59;;;;;;;13.80;6.53;;;;;;;;;;4961843;28;20054;-88
2022/09/05 05:19:28;;;;;;;13.25;6.25;;;;;;;;;;4962330;28;20022;-87
2022/09/05 05:21:56;;;;;;;12.15;6.15;;;;;;;;;;4981003;28;20116;-88
2022/09/05 05:24:42;;;;;;;13.90;7.32;;;;;;;;;;4958792;28;20490;-88
2022/09/05 05:27:11;;;;;;;11.65;6.40;;;;;;;;;;4962989;28;20087;-88
2022/09/05 05:29:37;;;;;;;10.95;6.03;;;;;;;;;;4975955;28;20030;-88
2022/09/05 05:32:04;;;;;;;8.60;6.45;;;;;;;;;;4980336;28;20669;-88
2022/09/05 05:34:35;;;;;;;10.18;6.05;;;;;;;;;;4946732;28;20452;-88
2022/09/05 05:37:07;;;;;;;12.52;6.07;;;;;;;;;;4973789;28;20027;-89
2022/09/05 05:39:44;;;;;;;9.50;5.88;;;;;;;;;;4974577;28;20037;-87
2022/09/05 05:42:16;;;;;;;17.80;5.97;;;;;;;;;;4964345;28;20023;-88
2022/09/05 05:44:47;;;;;;;11.60;6.25;;;;;;;;;;4980211;28;20030;-88
2022/09/05 05:47:21;;;;;;;11.23;6.13;;;;;;;;;;4965344;28;20085;-88
2022/09/05 05:50:02;;;;;;;7.03;5.60;;;;;;;;;;4970210;28;20037;-87
2022/09/05 05:52:40;;;;;;;13.70;6.07;;;;;;;;;;4981337;28;20085;-88
2022/09/05 05:55:12;;;;;;;9.40;6.00;;;;;;;;;;4964032;28;20030;-87
2022/09/05 05:57:57;;;;;;;10.88;6.22;;;;;;;;;;4961127;28;20130;-88
2022/09/05 06:00:38;;;;;;;11.85;6.15;;;;;;;;;;4967689;28;20030;-88
2022/09/05 06:03:04;;;;;;;7.65;5.72;;;;;;;;;;4957163;28;20471;-88
2022/09/05 06:05:30;;;;;;;10.43;5.45;;;;;;;;;;4978896;28;20023;-88
2022/09/05 06:08:05;;;;;;;7.78;5.30;;;;;;;;;;4982452;28;20034;-88
2022/09/05 06:10:31;;;;;;;6.18;5.30;;;;;;;;;;4978949;28;20478;-87
2022/09/05 06:13:16;;;;;;;13.82;6.03;;;;;;;;;;4981847;28;20243;-88
2022/09/05 06:16:01;;;;;;;11.85;6.05;;;;;;;;;;4964659;28;20528;-88
2022/09/05 06:18:34;;;;;;;8.35;5.78;;;;;;;;;;4964566;28;20035;-87
2022/09/05 06:21:03;;;;;;;13.85;6.20;;;;;;;;;;4964869;28;20033;-88
2022/09/05 06:23:48;;;;;;;8.93;6.25;;;;;;;;;;4984402;28;20386;-88
2022/09/05 06:26:40;;;;;;;6.30;5.63;;;;;;;;;;4966385;28;20030;-89
2022/09/05 06:29:06;;;;;;;7.13;5.70;;;;;;;;;;4986558;28;20034;-88
2022/09/05 06:31:47;;;;;;;10.77;5.65;;;;;;;;;;4966496;28;20031;-88
2022/09/05 06:34:28;;;;;;;29.92;5.72;;;;;;;;;;4981488;28;20073;-88
2022/09/05 06:37:04;;;;;;;13.48;6.53;;;;;;;;;;4955461;28;20030;-88
2022/09/05 06:39:48;;;;;;;16.95;5.50;;;;;;;;;;4976412;28;20142;-88
2022/09/05 06:42:19;;;;;;;9.38;5.45;;;;;;;;;;4983665;28;20434;-88
2022/09/05 06:44:56;;;;;;;15.18;6.45;;;;;;;;;;4980482;28;20124;-86
2022/09/05 06:47:24;;;;;;;12.43;5.57;;;;;;;;;;4966337;28;20038;-86
2022/09/05 06:50:04;;;;;;;8.68;6.22;;;;;;;;;;4984029;28;20070;-86
2022/09/05 06:52:49;;;;;;;10.73;5.55;;;;;;;;;;4965570;28;20038;-86
2022/09/05 06:55:34;;;;;;;8.02;5.65;;;;;;;;;;4966726;28;20538;-86
2022/09/05 06:58:19;;;;;;;10.38;5.97;;;;;;;;;;4964894;28;20105;-88
2022/09/05 07:00:47;;;;;;;8.77;6.82;;;;;;;;;;4963650;28;20033;-88
2022/09/05 07:03:13;;;;;;;8.73;5.25;;;;;;;;;;4959995;28;20030;-88
2022/09/05 07:05:41;;;;;;;10.00;5.03;;;;;;;;;;4959643;28;20391;-87
2022/09/05 07:08:16;;;;;;;8.07;5.18;;;;;;;;;;4960733;28;20061;-88
2022/09/05 07:10:46;;;;;;;10.82;5.55;;;;;;;;;;4956186;28;20104;-88
2022/09/05 07:13:19;;;;;;;8.38;5.50;;;;;;;;;;4958785;28;20042;-88
2022/09/05 07:15:51;;;;;;;12.02;6.63;;;;;;;;;;4956374;28;20026;-88
2022/09/05 07:18:30;;;;;;;12.57;6.75;;;;;;;;;;4952928;28;20081;-88
2022/09/05 07:20:56;;;;;;;8.57;5.55;;;;;;;;;;4958426;28;20031;-89
2022/09/05 07:23:25;;;;;;;8.20;5.82;;;;;;;;;;4954439;28;20719;-88
2022/09/05 07:25:54;;;;;;;10.20;5.78;;;;;;;;;;4962005;28;20479;-88
2022/09/05 07:28:21;;;;;;;17.20;5.97;;;;;;;;;;4948064;28;20148;-88
2022/09/05 07:30:52;;;;;;;8.40;5.60;;;;;;;;;;4945562;28;20038;-88
2022/09/05 07:33:19;;;;;;;13.20;5.18;;;;;;;;;;4962246;28;20640;-87
2022/09/05 07:35:45;;;;;;;16.00;5.97;;;;;;;;;;4975506;28;20510;-88
2022/09/05 07:38:14;;;;;;;7.72;5.30;;;;;;;;;;4961918;28;20034;-89
2022/09/05 07:40:46;;;;;;;7.13;5.38;;;;;;;;;;4962373;28;20034;-88
2022/09/05 07:43:15;;;;;;;7.53;5.07;;;;;;;;;;4979195;28;20034;-89
2022/09/05 07:45:47;;;;;;;9.55;5.32;;;;;;;;;;4960321;28;20030;-88
2022/09/05 07:48:17;;;;;;;9.18;5.30;;;;;;;;;;4962029;28;20042;-88
2022/09/05 07:50:56;;;;;;;12.43;4.97;;;;;;;;;;4959528;28;20326;-89
2022/09/05 07:53:22;;;;;;;13.63;5.18;;;;;;;;;;4967488;28;20615;-89
2022/09/05 07:55:52;;;;;;;9.57;5.20;;;;;;;;;;4948570;28;20393;-88
2022/09/05 07:58:20;;;;;;;10.02;5.25;;;;;;;;;;4979366;28;20042;-87
2022/09/05 08:00:51;;;;;;;6.32;5.30;;;;;;;;;;4962476;28;20034;-89
2022/09/05 08:03:17;;;;;;;5.93;4.53;;;;;;;;;;4971728;28;20034;-88
2022/09/05 08:05:44;;;;;;;9.60;5.53;;;;;;;;;;4973826;28;20300;-88
2022/09/05 08:08:19;;;;;;;11.63;5.35;;;;;;;;;;4955859;28;20030;-88
2022/09/05 08:10:51;;;;;;;10.23;5.43;;;;;;;;;;4972850;28;20582;-88
2022/09/05 08:13:24;;;;;;;7.63;5.25;;;;;;;;;;4959324;28;20443;-88
2022/09/05 08:15:52;;;;;;;11.68;6.00;;;;;;;;;;4959602;28;20053;-88
2022/09/05 08:18:37;;;;;;;6.68;5.60;;;;;;;;;;4954321;28;20038;-89
2022/09/05 08:21:09;;;;;;;7.07;4.85;;;;;;;;;;4958090;28;20038;-88
2022/09/05 08:23:54;;;;;;;11.18;5.50;;;;;;;;;;4956487;28;20124;-88
2022/09/05 08:26:23;;;;;;;8.98;5.20;;;;;;;;;;4964923;28;20513;-88
2022/09/05 08:28:55;;;;;;;8.60;5.03;;;;;;;;;;4958367;28;20030;-88
2022/09/05 08:31:27;;;;;;;8.25;6.05;;;;;;;;;;4976072;28;20034;-88
2022/09/05 08:33:56;;;;;;;10.63;5.75;;;;;;;;;;4960217;28;20042;-88
2022/09/05 08:36:35;;;;;;;6.55;4.82;;;;;;;;;;4969444;28;20407;-88
2022/09/05 08:39:02;;;;;;;9.20;5.20;;;;;;;;;;4947561;28;20081;-88
2022/09/05 08:41:32;;;;;;;8.55;5.47;;;;;;;;;;4958858;28;20390;-88
2022/09/05 08:44:24;;;;;;;10.00;4.93;;;;;;;;;;4962051;28;20506;-88
2022/09/05 08:46:52;;;;;;;7.53;4.97;;;;;;;;;;4936904;28;20045;-88
2022/09/05 08:49:37;;;;;;;8.65;5.03;;;;;;;;;;4957978;28;20100;-87
2022/09/05 08:52:03;;;;;;;9.73;5.00;;;;;;;;;;4956788;28;20045;-88
2022/09/05 08:54:35;;;;;;;8.27;4.80;;;;;;;;;;4975054;28;20750;-88
2022/09/05 08:57:09;;;;;;;11.27;5.28;;;;;;;;;;4961709;28;20121;-88
2022/09/05 08:59:38;;;;;;;7.90;5.55;;;;;;;;;;4951762;28;20550;-88
2022/09/05 09:02:10;;;;;;;10.05;5.78;;;;;;;;;;4961870;28;20054;-89
2022/09/05 09:04:39;;;;;;;9.48;5.20;;;;;;;;;;4964032;28;20030;-88
2022/09/05 09:07:12;;;;;;;8.80;5.72;;;;;;;;;;4960150;28;20494;-88
2022/09/05 09:09:53;;;;;;;6.32;5.18;;;;;;;;;;4965842;28;20089;-88
2022/09/05 09:12:38;;;;;;;9.50;4.55;;;;;;;;;;4963490;28;20049;-88
2022/09/05 09:15:19;;;;;;;11.57;5.15;;;;;;;;;;4967501;28;20406;-88
2022/09/05 09:17:48;;;;;;;6.75;5.22;;;;;;;;;;4954603;28;20034;-89
2022/09/05 09:20:17;;;;;;;6.95;4.70;;;;;;;;;;4958583;28;20118;-89
2022/09/05 09:23:03;;;;;;;10.82;4.53;;;;;;;;;;4977908;28;20441;-88
2022/09/05 09:25:37;;;;;;;7.22;4.88;;;;;;;;;;4979794;28;20038;-89
2022/09/05 09:28:32;;;;;;;6.65;4.85;;;;;;;;;;5127198;23;20131;-90
2022/09/05 09:31:02;;;;;;;11.30;4.65;;;;;;;;;;4936559;28;20046;-88
2022/09/05 09:36:57;;;;;;;6.60;4.38;;;;;;;;;;4863666;29;20045;-86
2022/09/05 09:39:26;;;;;;;6.72;4.53;;;;;;;;;;4917989;29;20036;-86
2022/09/05 09:42:00;;;;;;;10.02;4.55;;;;;;;;;;4957254;28;20042;-87
2022/09/05 09:44:45;;;;;;;7.05;3.95;;;;;;;;;;4986499;28;20114;-86
2022/09/05 09:47:20;;;;;;;5.95;4.05;;;;;;;;;;4965737;28;20101;-86
2022/09/05 09:50:05;;;;;;;7.00;4.60;;;;;;;;;;4986496;28;20065;-85
2022/09/05 09:52:44;;;;;;;6.10;4.20;;;;;;;;;;4968539;28;20042;-85
2022/09/05 09:55:39;;;;;;;4.57;3.50;;;;;;;;;;4966460;28;20045;-87
2022/09/05 09:58:24;;;;;;;7.88;4.15;;;;;;;;;;4966356;28;20034;-86
2022/09/05 10:00:50;;;;;;;9.32;3.70;;;;;;;;;;4970195;28;20389;-86
2022/09/05 10:03:18;;;;;;;5.45;3.67;;;;;;;;;;4967337;28;20033;-86
2022/09/05 10:05:57;;;;;;;4.80;3.47;;;;;;;;;;4964358;28;20085;-87
2022/09/05 10:08:42;;;;;;;6.03;3.85;;;;;;;;;;4982138;28;20034;-88
2022/09/05 10:11:13;;;;;;;9.77;4.10;;;;;;;;;;4967804;28;20030;-87
2022/09/05 10:14:20;;;;;;;8.73;3.50;;;;;;;;;;4986321;28;20289;-87
2022/09/05 10:16:46;;;;;;;4.22;3.47;;;;;;;;;;4914703;29;20039;-88
2022/09/05 10:19:15;;;;;;;6.88;3.15;;;;;;;;;;4917428;29;20031;-87
2022/09/05 10:21:59;;;;;;;10.63;3.10;;;;;;;;;;4938171;28;20141;-86
2022/09/05 10:24:25;;;;;;;4.00;3.38;;;;;;;;;;4963713;28;20027;-87
2022/09/05 10:26:56;;;;;;;8.18;3.83;;;;;;;;;;4971401;28;20432;-87
2022/09/05 10:29:48;;;;;;;3.45;3.13;;;;;;;;;;4953002;28;20146;-85
2022/09/05 10:32:23;;;;;;;5.38;3.35;;;;;;;;;;4920603;29;20039;-86
2022/09/05 10:35:11;;;;;;;12.00;3.20;;;;;;;;;;4926413;29;20039;-86
2022/09/05 10:37:40;;;;;;;2.90;2.63;;;;;;;;;;4926849;29;20031;-86
2022/09/05 10:40:10;;;;;;;5.18;2.90;;;;;;;;;;4943095;28;20051;-88
2022/09/05 10:42:41;;;;;;;8.55;2.85;;;;;;;;;;4926695;28;20066;-87
2022/09/05 10:45:26;;;;;;;3.95;3.08;;;;;;;;;;4926579;28;20035;-87
2022/09/05 10:47:58;;;;;;;4.97;3.50;;;;;;;;;;4940378;28;20078;-87
2022/09/05 10:50:25;;;;;;;3.58;2.75;;;;;;;;;;4925536;29;20303;-86
2022/09/05 10:52:54;;;;;;;3.80;3.40;;;;;;;;;;4927265;28;20035;-87
2022/09/05 10:55:26;;;;;;;2.90;2.60;;;;;;;;;;4919216;29;20040;-88
2022/09/05 10:57:58;;;;;;;2.72;2.53;;;;;;;;;;4923536;29;20616;-86
2022/09/05 11:00:37;;;;;;;5.63;3.17;;;;;;;;;;4922686;28;20541;-87
2022/09/05 11:03:04;;;;;;;6.13;2.78;;;;;;;;;;4927740;28;20443;-88
2022/09/05 11:05:36;;;;;;;3.97;2.95;;;;;;;;;;4927268;28;20028;-87
2022/09/05 11:08:19;;;;;;;5.53;2.80;;;;;;;;;;4926119;28;20526;-89
2022/09/05 11:10:45;;;;;;;4.82;2.70;;;;;;;;;;4935809;28;20028;-87
2022/09/05 11:13:12;;;;;;;7.30;3.13;;;;;;;;;;4927472;28;20110;-89
2022/09/05 11:15:41;;;;;;;5.63;2.85;;;;;;;;;;4929712;29;20118;-87
2022/09/05 11:18:26;;;;;;;5.32;3.10;;;;;;;;;;4922575;28;20720;-87
2022/09/05 11:21:11;;;;;;;12.10;2.63;;;;;;;;;;4922345;29;20545;-88
2022/09/05 11:23:51;;;;;;;8.15;2.60;;;;;;;;;;4928867;29;20889;-87
2022/09/05 11:26:30;;;;;;;4.90;2.58;;;;;;;;;;4922917;28;20090;-87
2022/09/05 11:29:02;;;;;;;6.75;2.50;;;;;;;;;;4962859;28;20110;-86
2022/09/05 11:31:41;;;;;;;3.17;1.95;;;;;;;;;;4963063;28;20055;-86
2022/09/05 11:34:36;;;;;;;3.67;2.53;;;;;;;;;;4960562;28;20043;-86
2022/09/05 11:37:03;;;;;;;14.30;3.67;;;;;;;;;;4951391;28;21769;-87
2022/09/05 11:39:38;;;;;;;3.90;2.58;;;;;;;;;;4953936;28;20125;-86
2022/09/05 11:42:04;;;;;;;5.28;2.80;;;;;;;;;;4954073;28;20390;-86
2022/09/05 11:44:56;;;;;;;2.63;2.42;;;;;;;;;;4948888;28;20026;-87
2022/09/05 11:47:22;;;;;;;5.10;2.72;;;;;;;;;;4928109;28;20053;-87
2022/09/05 11:49:51;;;;;;;4.20;2.88;;;;;;;;;;4950339;28;20027;-87
2022/09/05 11:52:39;;;;;;;7.95;3.15;;;;;;;;;;4956203;28;20037;-87
2022/09/05 11:55:24;;;;;;;5.07;2.78;;;;;;;;;;4952075;28;20506;-86
2022/09/05 11:58:02;;;;;;;3.20;2.90;;;;;;;;;;4959650;28;20156;-86
2022/09/05 12:00:40;;;;;;;6.70;2.80;;;;;;;;;;4957419;28;20031;-87
2022/09/05 12:03:30;;;;;;;4.85;2.38;;;;;;;;;;4965501;28;20505;-87
2022/09/05 12:06:15;;;;;;;5.05;2.65;;;;;;;;;;4961043;28;20023;-88
2022/09/05 12:08:41;;;;;;;4.20;2.85;;;;;;;;;;4960853;28;20493;-87
2022/09/05 12:11:16;;;;;;;9.00;3.20;;;;;;;;;;4960249;28;20058;-87
2022/09/05 12:13:58;;;;;;;5.30;3.05;;;;;;;;;;4972490;28;20042;-87
2022/09/05 12:16:43;;;;;;;5.22;2.85;;;;;;;;;;4971913;28;20178;-87
2022/09/05 12:19:32;;;;;;;5.15;3.00;;;;;;;;;;4972852;28;20528;-87
2022/09/05 12:22:17;;;;;;;7.72;3.17;;;;;;;;;;4934474;28;20504;-87
2022/09/05 12:24:53;;;;;;;3.40;2.47;;;;;;;;;;4956019;28;20022;-87
2022/09/05 12:27:22;;;;;;;4.45;3.50;;;;;;;;;;4957479;28;20042;-86
2022/09/05 12:29:53;;;;;;;2.85;2.47;;;;;;;;;;4960149;28;20054;-86
2022/09/05 12:32:20;;;;;;;6.03;2.60;;;;;;;;;;4972317;28;20383;-87
2022/09/05 12:34:51;;;;;;;5.35;2.70;;;;;;;;;;4959372;28;20030;-86
2022/09/05 12:37:27;;;;;;;5.13;2.67;;;;;;;;;;4954904;28;20070;-86
2022/09/05 12:40:14;;;;;;;2.28;2.08;;;;;;;;;;4956558;28;20022;-87
2022/09/05 12:43:03;;;;;;;4.78;2.92;;;;;;;;;;4960991;28;20046;-87
2022/09/05 12:45:33;;;;;;;6.95;3.65;;;;;;;;;;4963684;28;20039;-87
2022/09/05 12:48:05;;;;;;;4.75;2.75;;;;;;;;;;4957596;28;20054;-88
2022/09/05 12:50:33;;;;;;;5.13;2.67;;;;;;;;;;4957880;28;20657;-87
2022/09/05 12:53:05;;;;;;;3.60;2.47;;;;;;;;;;4954651;28;20030;-89
2022/09/05 12:55:51;;;;;;;3.65;2.97;;;;;;;;;;4949882;28;20058;-87
2022/09/05 12:58:24;;;;;;;8.13;2.88;;;;;;;;;;4951222;28;20482;-89
2022/09/05 13:00:51;;;;;;;4.35;2.90;;;;;;;;;;4955190;28;20740;-88
2022/09/05 13:03:23;;;;;;;3.92;2.90;;;;;;;;;;4957850;28;20042;-88
2022/09/05 13:05:51;;;;;;;3.10;2.50;;;;;;;;;;4974412;28;20137;-88
2022/09/05 13:08:21;;;;;;;5.97;2.83;;;;;;;;;;4960574;28;20042;-87
2022/09/05 13:10:54;;;;;;;4.53;3.00;;;;;;;;;;4956860;28;20453;-88
2022/09/05 13:13:27;;;;;;;3.35;2.70;;;;;;;;;;4956701;28;20045;-88
2022/09/05 13:15:55;;;;;;;7.25;3.00;;;;;;;;;;4953020;28;20045;-88
2022/09/05 13:18:27;;;;;;;5.90;3.08;;;;;;;;;;4962962;28;20089;-88
2022/09/05 13:21:01;;;;;;;3.97;2.83;;;;;;;;;;4968430;28;20027;-88
2022/09/05 13:23:30;;;;;;;10.20;2.55;;;;;;;;;;4964989;28;20034;-88
2022/09/05 13:25:57;;;;;;;5.95;2.83;;;;;;;;;;4960010;28;20041;-88
2022/09/05 13:28:40;;;;;;;8.50;2.40;;;;;;;;;;4974973;28;20060;-88
2022/09/05 13:31:07;;;;;;;4.03;2.40;;;;;;;;;;4944311;28;20053;-88
2022/09/05 13:33:43;;;;;;;9.73;2.60;;;;;;;;;;4939939;28;20031;-88
2022/09/05 13:36:12;;;;;;;4.18;2.67;;;;;;;;;;4944814;28;20034;-88
2022/09/05 13:39:08;;;;;;;2.80;2.50;;;;;;;;;;4958319;28;20039;-88
2022/09/05 13:41:36;;;;;;;3.13;2.70;;;;;;;;;;4942129;28;20058;-88
2022/09/05 13:44:10;;;;;;;3.13;2.53;;;;;;;;;;4946638;28;20533;-87
2022/09/05 13:46:37;;;;;;;3.72;2.47;;;;;;;;;;4947706;28;20027;-87
2022/09/05 13:49:06;;;;;;;8.75;2.95;;;;;;;;;;4947059;28;20031;-88
2022/09/05 13:51:42;;;;;;;6.03;2.90;;;;;;;;;;4950484;28;20054;-88
2022/09/05 13:54:08;;;;;;;4.18;2.72;;;;;;;;;;4965582;28;20062;-88
2022/09/05 13:56:39;;;;;;;3.33;2.28;;;;;;;;;;4947689;28;20073;-89
2022/09/05 13:59:08;;;;;;;2.60;2.40;;;;;;;;;;4945480;28;20089;-87
2022/09/05 14:01:37;;;;;;;4.88;2.92;;;;;;;;;;4962370;28;20035;-88
2022/09/05 14:04:18;;;;;;;3.15;2.53;;;;;;;;;;4943357;28;20480;-87
2022/09/05 14:07:09;;;;;;;4.90;2.50;;;;;;;;;;4960839;28;20030;-87
2022/09/05 14:09:45;;;;;;;8.55;2.95;;;;;;;;;;4960218;28;20031;-88
2022/09/05 14:12:28;;;;;;;9.80;2.50;;;;;;;;;;4962113;28;20035;-88
2022/09/05 14:14:54;;;;;;;4.45;2.65;;;;;;;;;;4958958;28;20553;-88
2022/09/05 14:17:21;;;;;;;7.22;2.85;;;;;;;;;;4964499;28;20042;-87
2022/09/05 14:22:35;;;;;;;6.88;2.30;;;;;;;;;;4959145;28;21608;-88
2022/09/05 14:25:03;;;;;;;5.25;2.60;;;;;;;;;;4961806;28;20470;-88
2022/09/05 14:27:31;;;;;;;6.63;2.67;;;;;;;;;;4957131;28;20341;-88
2022/09/05 14:29:57;;;;;;;4.18;2.10;;;;;;;;;;4957683;28;20077;-88
2022/09/05 14:32:30;;;;;;;4.95;2.53;;;;;;;;;;4951033;28;21227;-88
2022/09/05 14:35:06;;;;;;;7.35;2.50;;;;;;;;;;4963769;28;20084;-88
2022/09/05 14:37:42;;;;;;;3.55;2.80;;;;;;;;;;4959352;28;20428;-87
2022/09/05 14:40:17;;;;;;;5.15;2.88;;;;;;;;;;4957491;28;20501;-88
2022/09/05 14:42:43;;;;;;;6.10;2.50;;;;;;;;;;4972172;28;20031;-87
2022/09/05 14:45:21;;;;;;;7.53;3.05;;;;;;;;;;4975362;28;20525;-87
2022/09/05 14:48:05;;;;;;;4.75;2.50;;;;;;;;;;4960382;28;20038;-88
2022/09/05 14:50:35;;;;;;;6.28;2.63;;;;;;;;;;4966521;28;20026;-87
2022/09/05 14:53:03;;;;;;;3.15;2.20;;;;;;;;;;4964367;28;20058;-88
2022/09/05 14:55:32;;;;;;;6.90;2.28;;;;;;;;;;4955795;28;20022;-87
2022/09/05 14:57:58;;;;;;;5.25;2.38;;;;;;;;;;4969913;28;20572;-87
2022/09/05 15:00:26;;;;;;;4.35;2.33;;;;;;;;;;4951506;28;20526;-87
2022/09/05 15:02:56;;;;;;;7.72;2.50;;;;;;;;;;4954696;28;20472;-88
2022/09/05 15:05:28;;;;;;;6.35;2.17;;;;;;;;;;4953280;28;20038;-87
2022/09/05 15:08:08;;;;;;;26.20;3.22;;;;;;;;;;4971504;28;20054;-88
2022/09/05 15:10:36;;;;;;;6.95;2.70;;;;;;;;;;4954498;28;20049;-87
2022/09/05 15:13:22;;;;;;;3.20;2.22;;;;;;;;;;4958360;28;20545;-87
2022/09/05 15:15:57;;;;;;;;;;;;;;;;;;4959694;28;20034;-88
2022/09/05 15:18:42;;;;;;;6.97;2.67;;;;;;;;;;4970483;28;20344;-87
2022/09/05 15:21:17;;;;;;;5.55;2.75;;;;;;;;;;4958637;28;20159;-86
2022/09/05 15:23:58;;;;;;;3.70;2.35;;;;;;;;;;4959327;28;20041;-88
2022/09/05 15:26:29;;;;;;;5.40;2.13;;;;;;;;;;4961242;28;20031;-88
2022/09/05 15:29:07;;;;;;;3.92;2.40;;;;;;;;;;4976890;28;20602;-88
2022/09/05 15:31:33;;;;;;;7.65;2.80;;;;;;;;;;4952872;28;20081;-87
2022/09/05 15:34:17;;;;;;;9.18;2.33;;;;;;;;;;4947788;28;20035;-87